Time;durP1;ratioP1;P1;durP2;ratioP2;P2;SDS_P1;SDS_P2;PMS_P1;PMS_P2;Temp;Humidity;BMP_temperature;BMP_pressure;BME280_temperature;BME280_humidity;BME280_pressure;Samples;Min_cycle;Max_cycle;Signal;HPM_P1;HPM_P2
2022/07/04 00:00:06;;;;;;;4.13;0.90;;;21.70;59.50;;;;;;4999988;28;20059;-63
2022/07/04 00:02:32;;;;;;;4.65;1.13;;;21.70;59.60;;;;;;5002648;28;20017;-63
2022/07/04 00:04:57;;;;;;;5.15;1.13;;;21.70;59.60;;;;;;5001452;28;20084;-63
2022/07/04 00:07:23;;;;;;;4.18;0.93;;;21.70;59.60;;;;;;5003258;28;20053;-63
2022/07/04 00:09:49;;;;;;;4.28;0.90;;;21.70;59.70;;;;;;5004548;28;20030;-63
2022/07/04 00:12:14;;;;;;;4.72;1.08;;;21.70;59.70;;;;;;4999199;28;20034;-63
2022/07/04 00:14:40;;;;;;;2.92;0.90;;;21.70;59.70;;;;;;5001650;28;20064;-63
2022/07/04 00:17:06;;;;;;;4.22;0.95;;;21.70;59.80;;;;;;5003408;28;20118;-62
2022/07/04 00:19:31;;;;;;;3.65;0.95;;;21.70;59.80;;;;;;5004601;28;20033;-63
2022/07/04 00:21:57;;;;;;;3.55;1.02;;;21.60;59.80;;;;;;5009036;28;20070;-63
2022/07/04 00:24:23;;;;;;;3.90;0.95;;;21.60;59.80;;;;;;5008020;28;20037;-63
2022/07/04 00:26:48;;;;;;;4.50;1.20;;;21.60;59.80;;;;;;5006123;28;20022;-63
2022/07/04 00:29:14;;;;;;;2.35;0.90;;;21.60;59.80;;;;;;5007200;28;20054;-63
2022/07/04 00:31:40;;;;;;;2.50;0.80;;;21.60;59.90;;;;;;5005801;28;20018;-63
2022/07/04 00:34:06;;;;;;;3.05;0.82;;;21.60;59.90;;;;;;5006850;28;20084;-63
2022/07/04 00:36:31;;;;;;;2.58;0.80;;;21.60;59.90;;;;;;5006791;28;20042;-63
2022/07/04 00:38:57;;;;;;;3.75;0.98;;;21.60;59.90;;;;;;5021229;28;20043;-63
2022/07/04 00:41:23;;;;;;;2.58;0.80;;;21.60;59.90;;;;;;5006004;28;20028;-63
2022/07/04 00:44:04;;;;;;;3.13;0.80;;;21.60;59.90;;;;;;5007582;28;20037;-63
2022/07/04 00:46:30;;;;;;;2.53;0.90;;;21.50;60.00;;;;;;5006166;28;20900;-63
2022/07/04 00:48:55;;;;;;;2.83;1.00;;;21.50;59.90;;;;;;5007470;28;20053;-63
2022/07/04 00:51:21;;;;;;;6.10;0.93;;;21.50;60.00;;;;;;5005457;28;20061;-63
2022/07/04 00:53:47;;;;;;;3.70;0.90;;;21.50;60.00;;;;;;5006487;28;20029;-63
2022/07/04 00:56:13;;;;;;;3.78;0.77;;;21.50;60.00;;;;;;5006448;28;20041;-63
2022/07/04 00:58:38;;;;;;;3.38;0.90;;;21.50;60.00;;;;;;5008043;28;20053;-63
2022/07/04 01:01:04;;;;;;;2.95;0.90;;;21.50;60.00;;;;;;4999551;28;20105;-63
2022/07/04 01:03:29;;;;;;;3.53;1.02;;;21.50;60.00;;;;;;5008233;28;20100;-62
2022/07/04 01:05:56;;;;;;;3.70;0.80;;;21.50;60.10;;;;;;5006094;28;20108;-63
2022/07/04 01:08:21;;;;;;;3.13;0.88;;;21.40;60.00;;;;;;5005042;28;20052;-63
2022/07/04 01:10:47;;;;;;;3.45;0.70;;;21.40;60.00;;;;;;5005297;28;20029;-63
2022/07/04 01:13:20;;;;;;;2.92;0.90;;;21.40;60.00;;;;;;5007012;28;20042;-63
2022/07/04 01:15:46;;;;;;;4.20;0.90;;;21.40;60.10;;;;;;5007128;28;20042;-63
2022/07/04 01:18:12;;;;;;;4.15;1.20;;;21.40;60.00;;;;;;5005834;28;20104;-63
2022/07/04 01:20:37;;;;;;;2.92;0.82;;;21.40;60.00;;;;;;5005683;28;20449;-62
2022/07/04 01:23:03;;;;;;;4.40;1.00;;;21.40;60.10;;;;;;5008044;28;20604;-63
2022/07/04 01:25:29;;;;;;;2.70;0.90;;;21.40;60.10;;;;;;5007361;28;20030;-63
2022/07/04 01:27:55;;;;;;;2.80;0.60;;;21.40;60.10;;;;;;5003272;28;20077;-63
2022/07/04 01:30:20;;;;;;;5.00;1.17;;;21.40;60.10;;;;;;5006372;28;20088;-63
2022/07/04 01:32:46;;;;;;;3.83;0.88;;;21.40;60.20;;;;;;5005465;28;20049;-63
2022/07/04 01:35:12;;;;;;;2.95;0.82;;;21.40;60.20;;;;;;5005096;28;20033;-63
2022/07/04 01:37:38;;;;;;;3.97;0.88;;;21.30;60.10;;;;;;5003214;28;20034;-63
2022/07/04 01:40:04;;;;;;;3.80;0.90;;;21.30;60.10;;;;;;5006628;28;20064;-63
2022/07/04 01:42:30;;;;;;;2.10;0.88;;;21.30;60.10;;;;;;5005904;28;20137;-63
2022/07/04 01:44:55;;;;;;;4.15;0.90;;;21.30;60.20;;;;;;5003757;28;20108;-63
2022/07/04 01:47:21;;;;;;;1.88;0.90;;;21.30;60.20;;;;;;5006041;28;20037;-63
2022/07/04 01:49:47;;;;;;;2.42;0.80;;;21.30;60.20;;;;;;5006281;28;20029;-62
2022/07/04 01:52:13;;;;;;;4.32;1.05;;;21.30;60.20;;;;;;5002373;28;20040;-63
2022/07/04 01:54:39;;;;;;;1.73;0.70;;;21.30;60.20;;;;;;5004985;28;20038;-63
2022/07/04 01:57:05;;;;;;;3.67;0.90;;;21.30;60.40;;;;;;5005203;28;20101;-63
2022/07/04 02:02:15;;;;;;;3.85;1.00;;;21.20;60.30;;;;;;5005579;28;20037;-63
2022/07/04 02:04:41;;;;;;;3.45;1.13;;;21.20;60.30;;;;;;5007877;28;20034;-63
2022/07/04 02:07:07;;;;;;;3.33;0.90;;;21.20;60.30;;;;;;5002842;28;20034;-63
2022/07/04 02:09:33;;;;;;;3.05;0.82;;;21.20;60.30;;;;;;5003892;28;20041;-62
2022/07/04 02:14:43;;;;;;;4.13;0.83;;;21.20;60.30;;;;;;5004916;28;20036;-63
2022/07/04 02:17:09;;;;;;;1.88;0.70;;;21.20;60.30;;;;;;5005363;28;20046;-63
2022/07/04 02:19:35;;;;;;;3.72;0.85;;;21.20;60.30;;;;;;5001806;28;20026;-63
2022/07/04 02:22:01;;;;;;;3.15;1.02;;;21.20;60.40;;;;;;5004116;28;20026;-63
2022/07/04 02:24:27;;;;;;;4.00;1.00;;;21.20;60.40;;;;;;5006355;28;20069;-63
2022/07/04 02:26:52;;;;;;;1.95;0.70;;;21.20;60.50;;;;;;5003339;28;20402;-63
2022/07/04 02:29:18;;;;;;;3.15;0.70;;;21.20;60.40;;;;;;5006072;28;21178;-63
2022/07/04 02:31:44;;;;;;;2.47;0.88;;;21.10;60.40;;;;;;5005838;28;20560;-63
2022/07/04 02:34:09;;;;;;;1.38;0.70;;;21.10;60.40;;;;;;5002678;28;20026;-63
2022/07/04 02:36:35;;;;;;;2.88;0.65;;;21.10;60.40;;;;;;5004846;28;20595;-62
2022/07/04 02:39:01;;;;;;;2.40;0.98;;;21.10;60.40;;;;;;5004581;28;20025;-63
2022/07/04 02:41:26;;;;;;;2.53;0.77;;;21.10;60.40;;;;;;5005390;28;20040;-62
2022/07/04 02:43:52;;;;;;;3.33;0.63;;;21.10;60.50;;;;;;5004667;28;20112;-63
2022/07/04 02:46:18;;;;;;;1.83;0.70;;;21.10;60.50;;;;;;5004567;28;20069;-62
2022/07/04 02:48:44;;;;;;;5.78;0.88;;;21.10;60.50;;;;;;5005510;28;20045;-63
2022/07/04 02:51:09;;;;;;;2.70;0.80;;;21.00;60.50;;;;;;5006812;28;20025;-63
2022/07/04 02:53:35;;;;;;;2.10;0.80;;;21.00;60.50;;;;;;5004025;28;20025;-63
2022/07/04 02:56:03;;;;;;;2.28;0.80;;;21.00;60.50;;;;;;5003121;28;20038;-63
2022/07/04 02:58:30;;;;;;;2.67;1.00;;;21.00;60.50;;;;;;5006084;28;20694;-63
2022/07/04 03:00:56;;;;;;;4.57;0.80;;;21.00;60.50;;;;;;5003607;28;20500;-62
2022/07/04 03:03:21;;;;;;;2.70;0.73;;;21.00;60.50;;;;;;5005130;28;20037;-63
2022/07/04 03:05:47;;;;;;;2.25;0.60;;;21.00;60.60;;;;;;5004238;28;20025;-63
2022/07/04 03:08:12;;;;;;;2.80;0.80;;;21.00;60.50;;;;;;5003023;28;20049;-63
2022/07/04 03:10:38;;;;;;;1.15;0.50;;;21.00;60.60;;;;;;5004006;28;20030;-63
2022/07/04 03:13:04;;;;;;;2.67;0.80;;;20.90;60.50;;;;;;5004412;28;20040;-63
2022/07/04 03:15:29;;;;;;;1.75;0.70;;;21.00;60.60;;;;;;5006670;28;20046;-63
2022/07/04 03:17:55;;;;;;;1.27;0.63;;;21.00;60.60;;;;;;5004874;28;20070;-63
2022/07/04 03:20:21;;;;;;;2.75;1.00;;;20.90;60.60;;;;;;5004747;28;20379;-63
2022/07/04 03:22:46;;;;;;;3.50;0.95;;;20.90;60.60;;;;;;5000835;28;20535;-63
2022/07/04 03:25:12;;;;;;;2.63;0.75;;;20.90;60.70;;;;;;5002326;28;20100;-63
2022/07/04 03:27:37;;;;;;;1.55;0.63;;;20.90;60.60;;;;;;5002445;28;20026;-63
2022/07/04 03:30:03;;;;;;;1.63;0.55;;;20.90;60.60;;;;;;5004524;28;20036;-63
2022/07/04 03:32:29;;;;;;;1.52;0.50;;;20.90;60.60;;;;;;5003238;28;20058;-62
2022/07/04 03:34:55;;;;;;;2.40;0.63;;;20.90;60.70;;;;;;5007269;28;20111;-63
2022/07/04 03:37:20;;;;;;;2.15;0.57;;;20.90;60.70;;;;;;5004064;28;20101;-63
2022/07/04 03:39:46;;;;;;;3.47;0.68;;;20.90;60.80;;;;;;5002869;28;20108;-63
2022/07/04 03:42:12;;;;;;;2.65;0.90;;;20.90;60.80;;;;;;5004829;28;20942;-63
2022/07/04 03:44:37;;;;;;;1.90;0.55;;;20.90;60.80;;;;;;5005013;28;20033;-63
2022/07/04 03:47:03;;;;;;;1.52;0.57;;;20.90;60.80;;;;;;5001199;28;20566;-62
2022/07/04 03:49:29;;;;;;;0.85;0.60;;;20.90;60.80;;;;;;5005280;28;20030;-63
2022/07/04 03:51:54;;;;;;;1.98;0.73;;;20.90;60.80;;;;;;5003545;28;20163;-63
2022/07/04 03:54:20;;;;;;;2.60;0.80;;;20.80;60.90;;;;;;5004638;28;20097;-62
2022/07/04 03:56:45;;;;;;;3.45;0.85;;;20.80;60.90;;;;;;5007615;28;20493;-63
2022/07/04 03:59:11;;;;;;;1.15;0.60;;;20.80;61.90;;;;;;5006943;28;20109;-63
2022/07/04 04:01:37;;;;;;;2.22;0.70;;;20.80;60.90;;;;;;5009727;28;20034;-63
2022/07/04 04:06:47;;;;;;;3.50;0.70;;;20.80;61.00;;;;;;5007202;28;20037;-63
2022/07/04 04:09:16;;;;;;;3.17;0.85;;;20.80;60.90;;;;;;5008450;28;20056;-63
2022/07/04 04:11:42;;;;;;;1.30;0.60;;;20.80;61.00;;;;;;5009075;28;20518;-63
2022/07/04 04:14:08;;;;;;;1.67;0.75;;;20.80;61.00;;;;;;5008341;28;20025;-63
2022/07/04 04:16:34;;;;;;;2.33;0.80;;;20.80;61.10;;;;;;5007373;28;20084;-63
2022/07/04 04:18:59;;;;;;;2.65;1.00;;;20.70;61.00;;;;;;5007017;28;20089;-63
2022/07/04 04:21:25;;;;;;;0.95;0.60;;;20.80;61.10;;;;;;5009173;28;20506;-63
2022/07/04 04:23:51;;;;;;;2.47;0.60;;;20.70;61.10;;;;;;5008270;28;20022;-63
2022/07/04 04:26:17;;;;;;;1.13;0.47;;;20.70;61.00;;;;;;5007011;28;20034;-63
2022/07/04 04:28:43;;;;;;;2.42;0.60;;;20.70;61.10;;;;;;5009125;28;20026;-63
2022/07/04 04:31:10;;;;;;;3.00;0.80;;;20.70;61.10;;;;;;5005065;28;20435;-63
2022/07/04 04:33:35;;;;;;;2.55;0.90;;;20.70;61.20;;;;;;5002597;28;20146;-63
2022/07/04 04:36:01;;;;;;;1.73;0.68;;;20.70;61.20;;;;;;5008145;28;20524;-63
2022/07/04 04:38:27;;;;;;;2.03;0.70;;;20.70;61.10;;;;;;5009478;28;20561;-63
2022/07/04 04:40:53;;;;;;;2.97;0.93;;;20.70;61.20;;;;;;5006672;28;20084;-63
2022/07/04 04:43:18;;;;;;;1.58;0.63;;;20.70;61.20;;;;;;5025964;28;20371;-62
2022/07/04 04:45:44;;;;;;;2.55;0.90;;;20.70;61.20;;;;;;5002856;28;20773;-63
2022/07/04 04:48:10;;;;;;;1.95;0.57;;;20.70;61.20;;;;;;5007286;28;20034;-63
2022/07/04 04:50:39;;;;;;;2.35;0.90;;;20.60;61.20;;;;;;5007372;28;20033;-63
2022/07/04 04:53:04;;;;;;;1.17;0.60;;;20.60;61.20;;;;;;4999220;28;20453;-63
2022/07/04 04:55:30;;;;;;;1.60;0.60;;;20.60;61.20;;;;;;5007872;28;20042;-63
2022/07/04 04:57:56;;;;;;;2.13;0.70;;;20.60;61.20;;;;;;5006675;28;20022;-63
2022/07/04 05:00:21;;;;;;;1.83;0.70;;;20.60;61.20;;;;;;5006998;28;20041;-63
2022/07/04 05:02:47;;;;;;;1.50;0.50;;;20.60;61.20;;;;;;5007047;28;20033;-63
2022/07/04 05:05:13;;;;;;;0.77;0.57;;;20.60;61.30;;;;;;5005590;28;20137;-63
2022/07/04 05:07:38;;;;;;;2.67;0.82;;;20.60;61.30;;;;;;5004248;28;20460;-63
2022/07/04 05:10:04;;;;;;;5.18;0.90;;;20.60;61.20;;;;;;5005787;28;20570;-62
2022/07/04 05:12:30;;;;;;;1.67;0.57;;;20.60;61.20;;;;;;5005169;28;20035;-62
2022/07/04 05:14:56;;;;;;;1.63;0.60;;;20.60;61.20;;;;;;5006292;28;20040;-62
2022/07/04 05:17:22;;;;;;;3.83;0.60;;;20.60;61.20;;;;;;5006571;28;20045;-62
2022/07/04 05:19:48;;;;;;;2.60;0.80;;;20.60;61.30;;;;;;5004685;28;20026;-62
2022/07/04 05:22:25;;;;;;;3.28;0.90;;;20.60;61.40;;;;;;5006608;28;20030;-62
2022/07/04 05:24:51;;;;;;;4.03;0.60;;;20.60;61.50;;;;;;5007439;28;20034;-62
2022/07/04 05:27:17;;;;;;;4.45;0.70;;;20.60;61.60;;;;;;5005739;28;20036;-62
2022/07/04 05:29:44;;;;;;;1.80;0.63;;;20.60;61.70;;;;;;5003918;28;20018;-62
2022/07/04 05:32:10;;;;;;;2.65;0.80;;;20.60;61.70;;;;;;5006704;28;20038;-62
2022/07/04 05:34:35;;;;;;;2.63;0.80;;;20.70;61.70;;;;;;5006662;28;20095;-61
2022/07/04 05:37:02;;;;;;;5.05;0.85;;;20.70;61.80;;;;;;5008110;28;20666;-62
2022/07/04 05:39:28;;;;;;;2.08;0.68;;;20.60;61.70;;;;;;5007828;28;20406;-62
2022/07/04 05:41:54;;;;;;;2.70;0.65;;;20.60;61.70;;;;;;5006253;28;20037;-62
2022/07/04 05:44:19;;;;;;;3.83;0.80;;;20.60;61.70;;;;;;5007435;28;20076;-61
2022/07/04 05:46:45;;;;;;;3.38;0.80;;;20.60;61.70;;;;;;5007358;28;20034;-62
2022/07/04 05:49:11;;;;;;;2.45;0.63;;;20.70;61.80;;;;;;5006311;28;20030;-61
2022/07/04 05:51:36;;;;;;;3.58;1.00;;;20.60;61.70;;;;;;5005001;28;20037;-62
2022/07/04 05:54:02;;;;;;;2.90;0.85;;;20.70;61.70;;;;;;5007268;28;20042;-62
2022/07/04 05:56:28;;;;;;;4.05;1.17;;;20.70;61.80;;;;;;5006294;28;20046;-61
2022/07/04 05:58:53;;;;;;;3.20;0.60;;;20.60;61.70;;;;;;5006946;28;20018;-62
2022/07/04 06:01:19;;;;;;;2.28;0.60;;;20.70;61.80;;;;;;5004525;28;20380;-62
2022/07/04 06:03:45;;;;;;;3.20;0.65;;;20.60;61.70;;;;;;5005389;28;20104;-62
2022/07/04 06:06:11;;;;;;;5.28;0.80;;;20.60;61.70;;;;;;5007077;28;20060;-62
2022/07/04 06:08:36;;;;;;;4.35;1.02;;;20.70;61.80;;;;;;5006629;28;20050;-62
2022/07/04 06:11:03;;;;;;;2.63;0.90;;;20.60;61.70;;;;;;5003989;28;20036;-61
2022/07/04 06:13:28;;;;;;;2.63;0.90;;;20.70;61.80;;;;;;5005340;28;20030;-62
2022/07/04 06:15:54;;;;;;;4.45;1.10;;;20.60;61.70;;;;;;5003811;28;20092;-62
2022/07/04 06:18:20;;;;;;;3.85;0.75;;;20.70;61.80;;;;;;5005964;28;20030;-62
2022/07/04 06:20:46;;;;;;;3.17;0.80;;;20.70;61.80;;;;;;5008260;28;20025;-62
2022/07/04 06:23:11;;;;;;;4.30;0.90;;;20.60;61.70;;;;;;5006207;28;20050;-62
2022/07/04 06:25:37;;;;;;;6.18;1.05;;;20.70;61.80;;;;;;5004776;28;20084;-61
2022/07/04 06:28:03;;;;;;;3.72;0.93;;;20.70;61.80;;;;;;5005182;28;20108;-61
2022/07/04 06:30:28;;;;;;;3.72;0.90;;;20.70;61.80;;;;;;5005019;28;20040;-62
2022/07/04 06:32:55;;;;;;;3.38;0.82;;;20.70;61.80;;;;;;5004470;28;20033;-62
2022/07/04 06:38:23;;;;;;;4.00;0.82;;;20.70;61.80;;;;;;5002409;28;20040;-62
2022/07/04 06:40:50;;;;;;;2.53;0.70;;;20.70;61.80;;;;;;5005427;28;20053;-62
2022/07/04 06:43:16;;;;;;;2.97;0.70;;;20.70;61.80;;;;;;5005081;28;20044;-61
2022/07/04 06:45:41;;;;;;;2.33;0.77;;;20.70;61.80;;;;;;5006783;28;20992;-62
2022/07/04 06:48:07;;;;;;;2.40;0.90;;;20.60;61.80;;;;;;5010641;28;20498;-62
2022/07/04 06:50:33;;;;;;;1.38;0.70;;;20.60;61.80;;;;;;5005985;28;20033;-61
2022/07/04 06:53:02;;;;;;;4.18;1.00;;;20.60;61.90;;;;;;5006243;28;20465;-61
2022/07/04 06:55:28;;;;;;;4.47;0.93;;;20.60;61.80;;;;;;5003457;28;20034;-61
2022/07/04 06:57:53;;;;;;;1.90;0.75;;;20.60;62.00;;;;;;5007435;28;20406;-61
2022/07/04 07:00:19;;;;;;;2.75;0.90;;;20.60;61.90;;;;;;5004481;28;20022;-61
2022/07/04 07:02:45;;;;;;;4.95;0.95;;;20.60;61.90;;;;;;5005172;28;20052;-61
2022/07/04 07:05:10;;;;;;;2.10;0.80;;;20.60;62.00;;;;;;5004211;28;20030;-61
2022/07/04 07:07:36;;;;;;;3.60;0.75;;;20.60;62.00;;;;;;5005238;28;20038;-62
2022/07/04 07:10:02;;;;;;;4.28;1.10;;;20.60;62.10;;;;;;5005422;28;20029;-61
2022/07/04 07:12:28;;;;;;;2.13;0.80;;;20.60;62.10;;;;;;5005179;28;20030;-61
2022/07/04 07:14:54;;;;;;;2.78;0.70;;;20.60;62.20;;;;;;5004074;28;20121;-62
2022/07/04 07:17:20;;;;;;;2.53;0.80;;;20.60;62.20;;;;;;5005096;28;20232;-61
2022/07/04 07:19:46;;;;;;;3.30;1.00;;;20.60;62.20;;;;;;5003324;28;20029;-61
2022/07/04 07:22:12;;;;;;;3.50;0.85;;;20.60;62.30;;;;;;5005943;28;20026;-61
2022/07/04 07:24:37;;;;;;;2.40;0.80;;;20.60;62.10;;;;;;5005788;28;20050;-61
2022/07/04 07:27:04;;;;;;;3.17;0.80;;;20.60;62.30;;;;;;5004157;28;20486;-62
2022/07/04 07:29:29;;;;;;;2.13;0.75;;;20.60;62.20;;;;;;5017759;28;20457;-61
2022/07/04 07:31:55;;;;;;;2.30;0.80;;;20.60;62.20;;;;;;5006173;28;20033;-62
2022/07/04 07:34:20;;;;;;;2.35;0.70;;;20.60;62.30;;;;;;5009661;28;20018;-61
2022/07/04 07:36:46;;;;;;;2.38;0.70;;;20.60;62.20;;;;;;5009089;28;20124;-61
2022/07/04 07:39:12;;;;;;;1.67;0.70;;;20.60;62.30;;;;;;5008857;28;20029;-61
2022/07/04 07:41:37;;;;;;;5.13;0.80;;;20.60;62.30;;;;;;5008812;28;20045;-61
2022/07/04 07:44:03;;;;;;;1.02;0.55;;;20.60;62.30;;;;;;5008427;28;20546;-61
2022/07/04 07:46:29;;;;;;;2.15;0.70;;;20.60;62.30;;;;;;5008450;28;20036;-61
2022/07/04 07:48:54;;;;;;;1.45;0.70;;;20.50;62.30;;;;;;5009200;28;20494;-61
2022/07/04 07:51:20;;;;;;;2.25;0.63;;;20.60;62.30;;;;;;5006747;28;20034;-61
2022/07/04 07:53:46;;;;;;;2.10;0.77;;;20.60;62.30;;;;;;5008649;28;20105;-61
2022/07/04 07:56:11;;;;;;;0.80;0.47;;;20.60;62.40;;;;;;5007441;28;20038;-61
2022/07/04 07:58:37;;;;;;;4.57;0.65;;;20.50;62.40;;;;;;5007340;28;20072;-61
2022/07/04 08:01:02;;;;;;;3.08;0.93;;;20.60;62.40;;;;;;5007811;28;20589;-62
2022/07/04 08:06:13;;;;;;;2.45;0.80;;;20.50;62.30;;;;;;5006243;28;20072;-61
2022/07/04 08:08:42;;;;;;;1.15;0.60;;;20.50;62.40;;;;;;5008525;28;20058;-62
2022/07/04 08:11:11;;;;;;;2.42;0.77;;;20.50;62.30;;;;;;5008072;28;20026;-61
2022/07/04 08:13:38;;;;;;;2.85;0.70;;;20.50;62.30;;;;;;5005975;28;20028;-62
2022/07/04 08:16:04;;;;;;;2.65;0.68;;;20.50;62.40;;;;;;5007226;28;20055;-61
2022/07/04 08:18:29;;;;;;;1.98;0.80;;;20.50;62.40;;;;;;5008632;28;20244;-61
2022/07/04 08:20:55;;;;;;;2.42;0.63;;;20.50;62.40;;;;;;5004154;28;20498;-61
2022/07/04 08:23:22;;;;;;;2.05;0.70;;;20.50;62.40;;;;;;5002937;28;20025;-61
2022/07/04 08:25:47;;;;;;;1.58;0.50;;;20.60;62.50;;;;;;5004834;28;20045;-62
2022/07/04 08:28:13;;;;;;;3.65;0.80;;;20.60;62.50;;;;;;5004520;28;20026;-61
2022/07/04 08:30:39;;;;;;;2.95;0.73;;;20.60;62.50;;;;;;5005585;28;20037;-61
2022/07/04 08:33:04;;;;;;;2.05;0.70;;;20.60;62.40;;;;;;5004694;28;20025;-61
2022/07/04 08:35:30;;;;;;;2.95;0.80;;;20.60;62.40;;;;;;5001762;28;20136;-61
2022/07/04 08:37:56;;;;;;;2.85;0.82;;;20.60;62.40;;;;;;5005528;28;20109;-61
2022/07/04 08:40:22;;;;;;;2.03;0.75;;;20.60;62.40;;;;;;5002534;28;20125;-61
2022/07/04 08:42:48;;;;;;;2.63;0.70;;;20.60;63.00;;;;;;5006617;28;20335;-62
2022/07/04 08:45:14;;;;;;;2.38;0.77;;;20.60;62.30;;;;;;5003970;28;20018;-62
2022/07/04 08:47:40;;;;;;;2.13;0.68;;;20.60;62.30;;;;;;5022318;28;20032;-62
2022/07/04 08:50:10;;;;;;;2.05;0.70;;;20.60;62.30;;;;;;4991820;28;20025;-61
2022/07/04 08:52:37;;;;;;;3.70;0.73;;;20.60;62.40;;;;;;5005640;28;20061;-61
2022/07/04 09:00:34;;;;;;;1.40;0.80;;;20.60;62.40;;;;;;5005009;28;20057;-61
2022/07/04 09:03:00;;;;;;;2.03;0.80;;;20.70;62.40;;;;;;5008211;28;20368;-61
2022/07/04 09:05:26;;;;;;;1.98;0.70;;;20.60;62.30;;;;;;5022741;28;20032;-61
2022/07/04 09:07:53;;;;;;;1.27;0.55;;;20.70;62.30;;;;;;5003359;28;20036;-61
2022/07/04 09:10:18;;;;;;;1.42;0.73;;;20.60;62.30;;;;;;5004568;28;20520;-61
2022/07/04 09:12:44;;;;;;;2.00;0.73;;;20.70;62.50;;;;;;5003609;28;20022;-61
2022/07/04 09:15:10;;;;;;;2.83;0.80;;;20.70;62.30;;;;;;5008396;28;20049;-61
2022/07/04 09:17:35;;;;;;;2.50;0.60;;;20.70;62.30;;;;;;5003273;28;20065;-61
2022/07/04 09:20:21;;;;;;;3.38;0.80;;;20.70;62.30;;;;;;5014138;28;20033;-62
2022/07/04 09:22:47;;;;;;;1.17;0.60;;;20.70;62.30;;;;;;5003216;28;20028;-61
2022/07/04 09:25:14;;;;;;;2.42;0.63;;;20.80;62.40;;;;;;5002450;28;20030;-61
2022/07/04 09:27:42;;;;;;;2.47;1.00;;;20.70;62.20;;;;;;5004114;28;20053;-62
2022/07/04 09:30:08;;;;;;;2.25;0.60;;;20.70;62.20;;;;;;5006849;28;20080;-62
2022/07/04 09:32:47;;;;;;;1.95;0.70;;;20.70;62.30;;;;;;5007369;28;20022;-61
2022/07/04 09:35:22;;;;;;;2.05;0.70;;;20.80;62.40;;;;;;5002629;28;20893;-61
2022/07/04 09:37:49;;;;;;;1.75;0.70;;;20.70;62.20;;;;;;5003290;28;20172;-61
2022/07/04 09:40:29;;;;;;;1.80;0.80;;;20.70;62.30;;;;;;5006510;28;20105;-61
2022/07/04 09:42:57;;;;;;;1.75;0.65;;;20.80;63.40;;;;;;5003080;28;20525;-61
2022/07/04 09:45:24;;;;;;;3.30;0.90;;;20.70;62.30;;;;;;5002085;28;20026;-61
2022/07/04 09:47:50;;;;;;;3.33;0.90;;;20.80;62.30;;;;;;4999454;28;20030;-61
2022/07/04 09:50:19;;;;;;;1.50;0.60;;;20.70;62.30;;;;;;5007917;28;20025;-61
2022/07/04 09:52:55;;;;;;;2.60;0.80;;;20.80;62.20;;;;;;5003147;28;20014;-61
2022/07/04 09:55:28;;;;;;;2.40;0.80;;;20.80;62.40;;;;;;5003716;28;20030;-61
2022/07/04 09:57:55;;;;;;;2.17;0.57;;;20.80;62.40;;;;;;5004172;28;20406;-61
2022/07/04 10:00:35;;;;;;;3.15;0.70;;;20.70;62.20;;;;;;5006595;28;20056;-61
2022/07/04 10:03:22;;;;;;;0.75;0.50;;;20.80;62.30;;;;;;5005569;28;20040;-61
2022/07/04 10:06:08;;;;;;;1.63;0.57;;;20.80;62.30;;;;;;5002270;28;20030;-62
2022/07/04 10:08:34;;;;;;;1.48;0.60;;;20.80;62.30;;;;;;4972355;28;20038;-62
2022/07/04 10:11:00;;;;;;;2.50;0.70;;;20.80;62.40;;;;;;5003927;28;20057;-62
2022/07/04 10:13:26;;;;;;;0.63;0.57;;;20.80;62.30;;;;;;5005526;28;20124;-62
2022/07/04 10:15:52;;;;;;;0.60;0.50;;;20.80;62.20;;;;;;5003181;28;20613;-61
2022/07/04 10:18:22;;;;;;;1.77;0.80;;;20.80;62.10;;;;;;5006219;28;20049;-62
2022/07/04 10:20:49;;;;;;;2.35;0.70;;;20.80;62.10;;;;;;5006346;28;20021;-61
2022/07/04 10:23:15;;;;;;;3.15;0.80;;;20.80;62.20;;;;;;5009548;28;20115;-62
2022/07/04 10:25:41;;;;;;;1.58;0.70;;;20.90;62.50;;;;;;5002733;28;20026;-62
2022/07/04 10:28:07;;;;;;;2.35;0.70;;;20.90;62.30;;;;;;5004740;28;20036;-61
2022/07/04 10:30:37;;;;;;;2.22;0.70;;;20.90;62.20;;;;;;5002173;28;20030;-62
2022/07/04 10:33:04;;;;;;;1.92;0.73;;;20.90;62.50;;;;;;5006606;28;20018;-64
2022/07/04 10:35:51;;;;;;;4.05;0.93;;;20.90;62.30;;;;;;5006030;28;20110;-61
2022/07/04 10:38:26;;;;;;;4.45;0.70;;;20.90;62.20;;;;;;5004725;28;20026;-61
2022/07/04 10:40:52;;;;;;;3.42;0.82;;;21.00;62.20;;;;;;5005345;28;20045;-61
2022/07/04 10:43:41;;;;;;;3.00;0.70;;;21.00;62.20;;;;;;5005475;28;20026;-62
2022/07/04 10:46:13;;;;;;;3.67;0.70;;;21.00;62.00;;;;;;5003706;28;20034;-61
2022/07/04 10:49:14;;;;;;;3.13;0.93;;;21.10;62.00;;;;;;5005896;28;20026;-61
2022/07/04 10:51:49;;;;;;;2.72;0.80;;;21.10;62.00;;;;;;4908220;29;20036;-62
2022/07/04 10:54:33;;;;;;;2.38;0.68;;;21.00;62.00;;;;;;4908371;29;20028;-61
2022/07/04 10:57:15;;;;;;;3.15;1.00;;;21.10;62.00;;;;;;4905435;29;20048;-61
2022/07/04 11:00:03;;;;;;;2.78;0.80;;;21.10;62.00;;;;;;4908064;29;20496;-61
2022/07/04 11:02:36;;;;;;;4.00;1.15;;;21.10;61.90;;;;;;4906580;29;20048;-61
2022/07/04 11:05:11;;;;;;;2.08;0.77;;;21.10;62.00;;;;;;4906307;29;20031;-61
2022/07/04 11:07:37;;;;;;;2.30;0.80;;;21.10;62.00;;;;;;4908242;29;20123;-61
2022/07/04 11:12:55;;;;;;;2.38;0.70;;;21.20;61.80;;;;;;4907983;29;20036;-61
2022/07/04 11:15:32;;;;;;;2.90;0.88;;;21.20;61.80;;;;;;4908248;29;20087;-61
2022/07/04 11:18:02;;;;;;;1.95;0.65;;;21.30;61.70;;;;;;4908293;29;20076;-62
2022/07/04 11:20:29;;;;;;;2.13;0.88;;;21.20;61.60;;;;;;4907909;29;20047;-61
2022/07/04 11:23:08;;;;;;;2.65;0.70;;;21.30;61.70;;;;;;4907437;29;20082;-62
2022/07/04 11:25:33;;;;;;;3.40;0.75;;;21.30;61.60;;;;;;4905394;29;20123;-61
2022/07/04 11:28:20;;;;;;;1.92;0.80;;;21.30;62.60;;;;;;4941609;28;21070;-61
2022/07/04 11:30:52;;;;;;;3.35;0.77;;;21.30;61.50;;;;;;5007063;28;20652;-61
2022/07/04 11:33:29;;;;;;;0.95;0.57;;;21.40;61.70;;;;;;5005671;28;20050;-61
2022/07/04 11:36:15;;;;;;;2.33;0.77;;;21.40;61.50;;;;;;5001007;28;20486;-61
2022/07/04 11:38:43;;;;;;;3.55;0.93;;;21.40;61.40;;;;;;5004382;28;20054;-61
2022/07/04 11:46:38;;;;;;;2.20;0.88;;;21.40;61.30;;;;;;5002084;28;20080;-61
2022/07/04 11:49:08;;;;;;;4.00;1.08;;;21.50;61.20;;;;;;5003678;28;20050;-62
2022/07/04 11:51:34;;;;;;;1.45;0.68;;;21.50;61.20;;;;;;5003243;28;20105;-61
2022/07/04 11:54:06;;;;;;;2.45;0.90;;;21.50;61.10;;;;;;5002558;28;20113;-61
2022/07/04 11:56:32;;;;;;;2.20;0.68;;;21.50;61.10;;;;;;5005608;28;20136;-61
2022/07/04 11:58:57;;;;;;;2.88;0.98;;;21.50;61.00;;;;;;5004295;28;20124;-62
2022/07/04 12:01:29;;;;;;;3.60;0.65;;;21.50;61.00;;;;;;5003897;28;20034;-61
2022/07/04 12:03:54;;;;;;;2.33;0.80;;;21.60;61.00;;;;;;5001338;28;20117;-62
2022/07/04 12:06:21;;;;;;;1.75;0.70;;;21.60;60.90;;;;;;5005590;28;20104;-61
2022/07/04 12:08:47;;;;;;;2.42;0.88;;;21.60;60.90;;;;;;5003622;28;20545;-61
2022/07/04 12:11:12;;;;;;;2.55;0.98;;;21.60;60.90;;;;;;5007720;28;20034;-61
2022/07/04 12:13:38;;;;;;;2.83;1.05;;;21.60;60.80;;;;;;5004321;28;20026;-62
2022/07/04 12:16:04;;;;;;;2.25;0.73;;;21.60;60.90;;;;;;5007076;28;20046;-61
2022/07/04 12:18:31;;;;;;;2.08;0.63;;;21.60;60.80;;;;;;5005420;28;20035;-61
2022/07/04 12:21:15;;;;;;;2.67;0.95;;;21.60;60.80;;;;;;5005691;28;20092;-61
2022/07/04 12:23:41;;;;;;;1.45;0.70;;;21.70;60.70;;;;;;5006157;28;20041;-61
2022/07/04 12:26:09;;;;;;;2.40;0.75;;;21.70;60.80;;;;;;5008502;28;20026;-61
2022/07/04 12:28:36;;;;;;;1.60;0.80;;;21.70;60.80;;;;;;5002792;28;20030;-61
2022/07/04 12:31:01;;;;;;;1.95;0.60;;;21.70;60.70;;;;;;5007704;28;20552;-61
2022/07/04 12:33:28;;;;;;;2.95;1.05;;;21.70;60.60;;;;;;5009015;28;20022;-61
2022/07/04 12:35:59;;;;;;;1.83;0.80;;;21.70;60.50;;;;;;5007469;28;20121;-61
2022/07/04 12:38:27;;;;;;;1.13;0.60;;;21.80;60.60;;;;;;5004981;28;20105;-62
2022/07/04 12:40:54;;;;;;;2.15;0.63;;;21.80;60.50;;;;;;5004401;28;20052;-61
2022/07/04 12:43:23;;;;;;;2.00;0.60;;;21.80;60.60;;;;;;5005033;28;20030;-61
2022/07/04 12:45:51;;;;;;;2.00;0.60;;;21.80;60.50;;;;;;5004243;28;20450;-62
2022/07/04 12:48:21;;;;;;;1.83;0.75;;;21.80;60.50;;;;;;5003424;28;20502;-61
2022/07/04 12:50:47;;;;;;;3.50;0.98;;;21.90;60.60;;;;;;5005065;28;20482;-61
2022/07/04 12:53:13;;;;;;;1.45;0.70;;;21.90;60.40;;;;;;5004683;28;20022;-62
2022/07/04 12:55:45;;;;;;;3.13;0.73;;;21.90;60.40;;;;;;5018169;28;20041;-61
2022/07/04 12:58:11;;;;;;;2.33;0.63;;;21.90;60.40;;;;;;5006609;28;20025;-62
2022/07/04 13:00:37;;;;;;;2.92;0.82;;;21.90;60.30;;;;;;5006533;28;20034;-62
2022/07/04 13:03:03;;;;;;;2.88;0.75;;;21.90;60.40;;;;;;5005603;28;20390;-61
2022/07/04 13:05:30;;;;;;;2.25;0.70;;;22.00;60.40;;;;;;5003722;28;20034;-61
2022/07/04 13:07:56;;;;;;;3.92;0.80;;;22.00;60.40;;;;;;5002812;28;20038;-62
2022/07/04 13:10:21;;;;;;;5.00;0.90;;;22.00;60.40;;;;;;5002207;28;20025;-62
2022/07/04 13:12:47;;;;;;;5.40;1.30;;;22.00;60.20;;;;;;5002462;28;20017;-61
2022/07/04 13:15:12;;;;;;;6.85;1.15;;;21.90;57.80;;;;;;5004928;28;20216;-62